Terminal Aerodrome Forecast
Issued by NWS Bismarck, ND

Home | Current Version | Previous Version | Graphics & Text | Print | Product List | Glossary On
Versions: 1 2 3 4 5 6 7 8 9 10 11 12 13 14 15 16
425
FTUS43 KBIS 200534
TAFBIS
TAF
KBIS 200534Z 2006/2106 09005KT P6SM SKC
     FM201000 13006KT P6SM FEW250
     FM201600 17012G20KT P6SM FEW250
     FM202300 16014KT P6SM SCT250 WS020/18030KT
     FM210100 16013KT P6SM SCT250 WS020/18040KT
     FM210500 19013KT P6SM FEW250 WS020/22040KT=

USA.gov is the U.S. government's official web portal to all federal, state and local government web resources and services.